createdAt,value
2023-09-27T00:01:12.343Z,5.47
2023-09-27T00:04:36.830Z,5.73
2023-09-27T00:08:00.814Z,5.30
2023-09-27T00:11:25.711Z,6.12
2023-09-27T00:14:50.774Z,5.30
2023-09-27T00:18:16.559Z,5.40
2023-09-27T00:21:40.645Z,5.80
2023-09-27T00:25:06.234Z,5.40
2023-09-27T00:28:30.355Z,5.97
2023-09-27T00:31:56.263Z,5.80
2023-09-27T00:35:24.331Z,5.37
2023-09-27T00:38:49.237Z,5.07
2023-09-27T00:42:14.550Z,5.78
2023-09-27T00:45:38.779Z,4.87
2023-09-27T00:49:04.191Z,5.72
2023-09-27T00:52:28.487Z,5.47
2023-09-27T00:55:52.203Z,5.00
2023-09-27T00:59:16.918Z,5.85
2023-09-27T01:02:41.662Z,5.43
2023-09-27T01:06:07.337Z,5.57
2023-09-27T01:09:31.903Z,6.27
2023-09-27T01:12:56.401Z,6.03
2023-09-27T01:16:20.477Z,6.32
2023-09-27T01:19:44.811Z,5.62
2023-09-27T01:23:09.752Z,5.47
2023-09-27T01:26:34.262Z,5.00
2023-09-27T01:29:58.088Z,5.28
2023-09-27T01:33:22.727Z,5.87
2023-09-27T01:36:46.259Z,5.22
2023-09-27T01:40:17.843Z,6.97
2023-09-27T01:43:41.598Z,5.45
2023-09-27T01:47:06.127Z,5.95
2023-09-27T01:50:30.344Z,5.53
2023-09-27T01:53:55.459Z,5.90
2023-09-27T01:57:20.754Z,5.10
2023-09-27T02:00:45.012Z,5.47
2023-09-27T02:04:09.462Z,5.80
2023-09-27T02:07:33.519Z,4.90
2023-09-27T02:10:58.128Z,6.07
2023-09-27T02:14:23.647Z,5.80
2023-09-27T02:17:47.793Z,5.62
2023-09-27T02:21:12.168Z,6.00
2023-09-27T02:24:36.203Z,6.10
2023-09-27T02:28:01.204Z,6.20
2023-09-27T02:31:26.971Z,6.47
2023-09-27T02:34:51.371Z,6.15
2023-09-27T02:38:15.610Z,6.28
2023-09-27T02:41:41.283Z,6.30
2023-09-27T02:45:05.304Z,6.40
2023-09-27T02:48:31.504Z,6.43
2023-09-27T02:51:55.584Z,6.57
2023-09-27T02:55:19.867Z,5.80
2023-09-27T02:58:46.517Z,6.75
2023-09-27T03:02:11.107Z,6.07
2023-09-27T03:05:40.155Z,5.85
2023-09-27T03:09:05.336Z,6.18
2023-09-27T03:12:29.821Z,6.50
2023-09-27T03:16:00.118Z,6.07
2023-09-27T03:19:24.652Z,6.23
2023-09-27T03:22:50.730Z,6.12
2023-09-27T03:26:14.507Z,7.07
2023-09-27T03:29:38.590Z,6.07
2023-09-27T03:33:02.669Z,6.72
2023-09-27T03:36:26.964Z,7.23
2023-09-27T03:39:54.278Z,7.28
2023-09-27T03:43:18.669Z,7.00
2023-09-27T03:46:42.868Z,6.22
2023-09-27T03:50:08.683Z,6.72
2023-09-27T03:53:33.982Z,5.87
2023-09-27T03:56:59.445Z,5.95
2023-09-27T04:00:24.875Z,6.70
2023-09-27T04:03:50.531Z,6.00
2023-09-27T04:07:14.842Z,6.57
2023-09-27T04:10:39.897Z,6.33
2023-09-27T04:14:07.338Z,6.65
2023-09-27T04:17:31.666Z,6.75
2023-09-27T04:20:56.183Z,5.90
2023-09-27T04:24:20.836Z,6.10
2023-09-27T04:27:44.902Z,6.20
2023-09-27T04:31:11.024Z,6.60
2023-09-27T04:34:34.699Z,6.45
2023-09-27T04:37:59.202Z,6.57
2023-09-27T04:41:23.161Z,6.10
2023-09-27T04:44:47.651Z,6.82
2023-09-27T04:48:13.296Z,6.65
2023-09-27T04:51:37.579Z,6.43
2023-09-27T04:55:01.915Z,6.57
2023-09-27T04:58:26.519Z,6.57
2023-09-27T05:01:50.888Z,5.95
2023-09-27T05:05:17.858Z,6.05
2023-09-27T05:08:41.954Z,6.25
2023-09-27T05:12:06.587Z,6.55
2023-09-27T05:15:30.374Z,5.73
2023-09-27T05:18:55.097Z,6.53
2023-09-27T05:22:21.294Z,6.62
2023-09-27T05:25:46.252Z,5.97
2023-09-27T05:29:15.350Z,5.93
2023-09-27T05:32:39.569Z,5.72
2023-09-27T05:36:03.253Z,6.22
2023-09-27T05:39:28.788Z,6.25
2023-09-27T05:42:52.672Z,5.47
2023-09-27T05:46:17.603Z,5.80
2023-09-27T05:49:42.816Z,6.20
2023-09-27T05:53:08.140Z,6.00
2023-09-27T05:56:34.555Z,6.05
2023-09-27T06:00:00.366Z,6.72
2023-09-27T06:03:27.588Z,6.00
2023-09-27T06:06:52.604Z,4.80
2023-09-27T06:10:17.122Z,6.07
2023-09-27T06:13:43.461Z,5.45
2023-09-27T06:17:07.837Z,6.03
2023-09-27T06:20:34.172Z,5.30
2023-09-27T06:23:57.967Z,5.87
2023-09-27T06:27:21.797Z,5.60
2023-09-27T06:30:47.209Z,5.20
2023-09-27T06:34:11.539Z,5.20
2023-09-27T06:37:34.992Z,5.57
2023-09-27T06:40:59.052Z,5.78
2023-09-27T06:44:22.260Z,5.53
2023-09-27T06:47:50.906Z,5.55
2023-09-27T06:51:15.159Z,5.33
2023-09-27T06:54:39.748Z,5.65
2023-09-27T06:58:03.488Z,5.37
2023-09-27T07:01:28.225Z,5.60
2023-09-27T07:04:53.479Z,6.12
2023-09-27T07:08:18.167Z,6.00
2023-09-27T07:11:45.132Z,5.75
2023-09-27T07:15:11.411Z,5.75
2023-09-27T07:18:36.763Z,5.30
2023-09-27T07:22:09.625Z,5.73
2023-09-27T07:25:35.842Z,6.07
2023-09-27T07:28:59.299Z,6.28
2023-09-27T07:32:23.509Z,4.90
2023-09-27T07:35:53.752Z,5.20
2023-09-27T07:39:19.237Z,6.20
2023-09-27T07:42:44.352Z,4.95
2023-09-27T07:46:08.953Z,5.57
2023-09-27T07:49:34.153Z,4.40
2023-09-27T07:52:58.211Z,4.90
2023-09-27T07:56:25.795Z,5.30
2023-09-27T07:59:50.814Z,5.35
2023-09-27T08:03:16.269Z,5.72
2023-09-27T08:06:41.198Z,5.80
2023-09-27T08:10:19.161Z,5.30
2023-09-27T08:13:47.662Z,5.82
2023-09-27T08:17:11.824Z,5.70
2023-09-27T08:20:36.504Z,5.95
2023-09-27T08:24:00.625Z,5.50
2023-09-27T08:27:25.171Z,5.10
2023-09-27T08:30:51.269Z,5.28
2023-09-27T08:34:16.068Z,6.40
2023-09-27T08:37:40.002Z,5.87
2023-09-27T08:41:05.392Z,6.20
2023-09-27T08:44:29.779Z,6.62
2023-09-27T08:47:55.859Z,5.80
2023-09-27T08:51:20.463Z,5.82
2023-09-27T08:54:45.019Z,5.37
2023-09-27T08:58:09.761Z,5.77
2023-09-27T09:01:35.796Z,5.43
2023-09-27T09:05:02.176Z,6.43
2023-09-27T09:08:42.764Z,5.37
2023-09-27T09:12:10.530Z,5.68
2023-09-27T09:15:42.870Z,5.53
2023-09-27T09:19:41.142Z,5.65
2023-09-27T09:23:14.125Z,5.85
2023-09-27T09:26:38.773Z,5.68
2023-09-27T09:30:08.215Z,5.37
2023-09-27T09:33:38.340Z,5.40
2023-09-27T09:37:02.676Z,4.97
2023-09-27T09:40:28.482Z,5.18
2023-09-27T09:43:53.405Z,6.22
2023-09-27T09:47:18.970Z,5.93
2023-09-27T09:50:43.537Z,5.32
2023-09-27T09:54:08.317Z,6.07
2023-09-27T09:57:52.338Z,5.82
2023-09-27T10:01:23.431Z,5.47
2023-09-27T10:04:48.324Z,6.12
2023-09-27T10:08:12.156Z,5.03
2023-09-27T10:11:38.255Z,5.07
2023-09-27T10:15:04.140Z,5.03
2023-09-27T10:18:35.167Z,5.05
2023-09-27T10:22:07.413Z,5.30
2023-09-27T10:25:38.399Z,5.70
2023-09-27T10:29:15.580Z,5.75
2023-09-27T10:32:40.503Z,6.20
2023-09-27T10:36:29.270Z,5.90
2023-09-27T10:40:22.521Z,5.75
2023-09-27T10:43:46.285Z,5.37
2023-09-27T10:47:10.770Z,5.37
2023-09-27T10:50:36.163Z,5.77
2023-09-27T10:54:02.020Z,4.95
2023-09-27T10:57:28.887Z,5.43
2023-09-27T11:00:54.491Z,5.55
2023-09-27T11:04:18.287Z,5.45
2023-09-27T11:07:52.667Z,5.53
2023-09-27T11:11:17.793Z,5.53
2023-09-27T11:14:47.350Z,5.32
2023-09-27T11:18:12.342Z,4.80
2023-09-27T11:21:36.749Z,5.40
2023-09-27T11:25:02.324Z,6.10
2023-09-27T11:28:26.903Z,5.78
2023-09-27T11:31:57.843Z,6.10
2023-09-27T11:35:22.223Z,5.50
2023-09-27T11:38:51.798Z,5.40
2023-09-27T11:42:17.731Z,5.30
2023-09-27T11:45:46.059Z,5.70
2023-09-27T11:49:10.004Z,5.62
2023-09-27T11:52:32.753Z,5.65
2023-09-27T11:55:56.961Z,5.30
2023-09-27T11:59:21.113Z,5.83
2023-09-27T12:02:56.426Z,5.40
2023-09-27T12:06:21.186Z,5.35
2023-09-27T12:09:44.026Z,4.97
2023-09-27T12:13:07.393Z,5.18
2023-09-27T12:16:32.460Z,5.43
2023-09-27T12:19:56.115Z,5.35
2023-09-27T12:23:20.072Z,5.75
2023-09-27T12:26:44.670Z,5.60
2023-09-27T12:30:10.059Z,5.18
2023-09-27T12:33:35.791Z,5.10
2023-09-27T12:37:00.025Z,4.93
2023-09-27T12:40:25.874Z,5.70
2023-09-27T12:43:49.710Z,5.12
2023-09-27T12:47:12.955Z,4.50
2023-09-27T12:50:37.582Z,4.32
2023-09-27T12:54:00.706Z,4.80
2023-09-27T12:57:23.671Z,4.50
2023-09-27T13:00:46.932Z,4.78
2023-09-27T13:04:10.690Z,4.62
2023-09-27T13:07:35.426Z,5.87
2023-09-27T13:10:58.474Z,4.43
2023-09-27T13:14:22.208Z,4.95
2023-09-27T13:17:45.353Z,5.05
2023-09-27T13:21:12.345Z,5.37
2023-09-27T13:24:37.071Z,4.80
2023-09-27T13:28:00.237Z,5.10
2023-09-27T13:31:25.033Z,6.45
2023-09-27T13:34:49.365Z,5.70
2023-09-27T13:38:13.030Z,4.72
2023-09-27T13:41:44.177Z,4.82
2023-09-27T13:45:09.115Z,4.65
2023-09-27T13:48:34.370Z,4.87
2023-09-27T13:51:58.411Z,4.62
2023-09-27T13:55:23.454Z,4.22
2023-09-27T13:58:48.792Z,4.43
2023-09-27T14:02:16.170Z,4.20
2023-09-27T14:05:40.520Z,4.20
2023-09-27T14:09:05.314Z,3.87
2023-09-27T14:12:30.134Z,4.60
2023-09-27T14:15:55.927Z,4.90
2023-09-27T14:19:20.974Z,4.53
2023-09-27T14:22:45.806Z,4.68
2023-09-27T14:26:10.817Z,4.40
2023-09-27T14:29:36.495Z,4.40
2023-09-27T14:33:03.984Z,4.70
2023-09-27T14:36:27.067Z,4.75
2023-09-27T14:39:50.183Z,4.40
2023-09-27T14:43:13.751Z,4.47
2023-09-27T14:46:37.842Z,4.50
2023-09-27T14:50:02.328Z,4.37
2023-09-27T14:53:26.100Z,4.20
2023-09-27T14:56:50.104Z,4.67
2023-09-27T15:00:15.039Z,4.30
2023-09-27T15:03:39.344Z,4.57
2023-09-27T15:07:05.645Z,3.90
2023-09-27T15:10:29.579Z,4.30
2023-09-27T15:13:57.694Z,3.95
2023-09-27T15:17:22.236Z,4.12
2023-09-27T15:20:46.781Z,4.22
2023-09-27T15:24:12.801Z,3.73
2023-09-27T15:27:37.167Z,4.22
2023-09-27T15:31:00.958Z,4.22
2023-09-27T15:34:25.415Z,4.40
2023-09-27T15:37:53.716Z,4.03
2023-09-27T15:41:20.013Z,4.33
2023-09-27T15:44:43.929Z,4.18
2023-09-27T15:48:09.262Z,4.07
2023-09-27T15:51:33.303Z,4.93
2023-09-27T15:54:57.595Z,4.85
2023-09-27T15:58:23.364Z,4.25
2023-09-27T16:01:47.391Z,4.35
2023-09-27T16:05:12.407Z,4.60
2023-09-27T16:08:36.091Z,4.90
2023-09-27T16:12:00.477Z,4.62
2023-09-27T16:15:27.433Z,4.07
2023-09-27T16:18:51.522Z,4.37
2023-09-27T16:22:14.994Z,4.72
2023-09-27T16:25:39.724Z,4.20
2023-09-27T16:29:04.285Z,4.68
2023-09-27T16:32:31.000Z,4.20
2023-09-27T16:35:55.940Z,4.00
2023-09-27T16:39:20.746Z,4.57
2023-09-27T16:42:45.648Z,4.25
2023-09-27T16:46:10.454Z,3.83
2023-09-27T16:49:36.381Z,4.25
2023-09-27T16:53:01.034Z,3.83
2023-09-27T16:56:25.639Z,4.10
2023-09-27T16:59:50.689Z,4.25
2023-09-27T17:03:15.495Z,4.22
2023-09-27T17:06:42.617Z,4.32
2023-09-27T17:10:10.625Z,4.28
2023-09-27T17:13:37.470Z,4.28
2023-09-27T17:17:03.953Z,4.00
2023-09-27T17:20:30.790Z,4.47
2023-09-27T17:23:58.842Z,4.37
2023-09-27T17:27:25.794Z,4.60
2023-09-27T17:30:52.668Z,4.68
2023-09-27T17:34:19.348Z,5.03
2023-09-27T17:37:46.313Z,4.50
2023-09-27T17:41:14.318Z,4.65
2023-09-27T17:44:40.541Z,4.75
2023-09-27T17:48:07.957Z,4.78
2023-09-27T17:51:35.569Z,5.10
2023-09-27T17:55:02.970Z,4.97
2023-09-27T17:58:31.454Z,4.50
2023-09-27T18:01:58.880Z,5.10
2023-09-27T18:05:25.582Z,4.57
2023-09-27T18:08:51.258Z,4.28
2023-09-27T18:12:18.279Z,4.63
2023-09-27T18:15:46.216Z,4.43
2023-09-27T18:19:14.373Z,4.93
2023-09-27T18:22:40.728Z,4.82
2023-09-27T18:26:07.152Z,4.67
2023-09-27T18:29:34.245Z,4.90
2023-09-27T18:33:03.272Z,4.62
2023-09-27T18:36:29.234Z,5.32
2023-09-27T18:39:56.034Z,5.20
2023-09-27T18:43:22.925Z,5.00
2023-09-27T18:46:49.259Z,4.75
2023-09-27T18:50:19.908Z,4.85
2023-09-27T18:53:46.194Z,4.50
2023-09-27T18:57:13.282Z,5.12
2023-09-27T19:00:42.974Z,6.20
2023-09-27T19:04:09.647Z,6.90
2023-09-27T19:07:41.182Z,7.32
2023-09-27T19:11:08.485Z,6.87
2023-09-27T19:14:34.380Z,5.60
2023-09-27T19:18:01.276Z,5.50
2023-09-27T19:21:28.510Z,4.90
2023-09-27T19:24:57.264Z,4.95
2023-09-27T19:28:24.964Z,5.00
2023-09-27T19:31:52.196Z,4.03
2023-09-27T19:35:19.847Z,5.23
2023-09-27T19:38:46.347Z,3.97
2023-09-27T19:42:17.092Z,4.60
2023-09-27T19:45:43.243Z,4.72
2023-09-27T19:49:12.938Z,4.50
2023-09-27T19:52:40.294Z,4.30
2023-09-27T19:56:06.789Z,3.92
2023-09-27T19:59:34.272Z,4.20
2023-09-27T20:03:00.314Z,4.15
2023-09-27T20:06:27.322Z,4.47
2023-09-27T20:09:52.224Z,4.20
2023-09-27T20:13:17.698Z,4.43
2023-09-27T20:16:45.351Z,4.10
2023-09-27T20:20:12.380Z,4.35
2023-09-27T20:23:36.211Z,3.87
2023-09-27T20:27:02.819Z,4.70
2023-09-27T20:30:26.935Z,4.60
2023-09-27T20:33:52.828Z,4.20
2023-09-27T20:37:16.582Z,4.05
2023-09-27T20:40:41.172Z,4.60
2023-09-27T20:44:04.953Z,4.23
2023-09-27T20:47:29.400Z,4.80
2023-09-27T20:50:58.595Z,4.78
2023-09-27T20:54:23.186Z,4.15
2023-09-27T20:57:48.943Z,4.93
2023-09-27T21:01:26.281Z,4.60
2023-09-27T21:04:50.460Z,4.85
2023-09-27T21:08:16.858Z,4.80
2023-09-27T21:11:40.583Z,4.65
2023-09-27T21:15:05.195Z,5.25
2023-09-27T21:18:28.822Z,5.03
2023-09-27T21:21:53.471Z,4.20
2023-09-27T21:25:19.275Z,5.35
2023-09-27T21:28:43.796Z,4.75
2023-09-27T21:32:07.627Z,4.28
2023-09-27T21:35:31.990Z,4.57
2023-09-27T21:38:55.975Z,4.95
2023-09-27T21:42:22.209Z,4.87
2023-09-27T21:45:46.431Z,4.70
2023-09-27T21:49:10.675Z,4.50
2023-09-27T21:52:37.457Z,4.37
2023-09-27T21:56:01.891Z,4.60
2023-09-27T21:59:27.390Z,4.97
2023-09-27T22:02:51.908Z,4.68
2023-09-27T22:06:16.959Z,4.70
2023-09-27T22:09:42.267Z,4.73
2023-09-27T22:13:23.024Z,5.10
2023-09-27T22:16:49.621Z,5.12
2023-09-27T22:20:14.242Z,5.10
2023-09-27T22:23:41.747Z,4.20
2023-09-27T22:27:09.418Z,4.37
2023-09-27T22:30:33.346Z,4.07
2023-09-27T22:33:59.268Z,4.68
2023-09-27T22:37:25.667Z,4.25
2023-09-27T22:40:50.355Z,4.07
2023-09-27T22:44:20.866Z,3.97
2023-09-27T22:47:45.881Z,4.35
2023-09-27T22:51:11.209Z,4.40
2023-09-27T22:54:35.817Z,4.18
2023-09-27T22:58:00.049Z,4.13
2023-09-27T23:01:29.613Z,4.32
2023-09-27T23:04:53.576Z,4.40
2023-09-27T23:08:27.761Z,4.05
2023-09-27T23:12:01.637Z,3.92
2023-09-27T23:15:39.488Z,4.50
2023-09-27T23:19:02.362Z,4.22
2023-09-27T23:22:26.777Z,4.18
2023-09-27T23:25:53.833Z,4.20
2023-09-27T23:29:37.520Z,4.43
2023-09-27T23:33:02.922Z,4.20
2023-09-27T23:36:27.702Z,4.50
2023-09-27T23:39:52.110Z,4.47
2023-09-27T23:43:18.050Z,4.20
2023-09-27T23:46:43.324Z,3.87
2023-09-27T23:50:10.238Z,3.90
2023-09-27T23:53:34.567Z,4.12
2023-09-27T23:57:00.416Z,4.80
